createdAt,value
2023-08-31T00:01:04.956Z,15.40
2023-08-31T00:03:32.965Z,15.40
2023-08-31T00:06:03.318Z,15.40
2023-08-31T00:08:30.025Z,16.80
2023-08-31T00:11:01.509Z,15.40
2023-08-31T00:13:29.653Z,15.40
2023-08-31T00:15:58.422Z,15.40
2023-08-31T00:18:26.488Z,15.40
2023-08-31T00:20:53.337Z,15.40
2023-08-31T00:23:20.139Z,15.40
2023-08-31T00:25:48.987Z,15.40
2023-08-31T00:28:16.708Z,15.40
2023-08-31T00:30:45.643Z,15.40
2023-08-31T00:33:13.670Z,15.40
2023-08-31T00:35:44.986Z,15.40
2023-08-31T00:38:11.662Z,15.40
2023-08-31T00:40:45.911Z,15.40
2023-08-31T00:43:16.422Z,15.40
2023-08-31T00:45:44.394Z,15.30
2023-08-31T00:48:11.534Z,15.30
2023-08-31T00:50:38.195Z,15.30
2023-08-31T00:53:05.202Z,15.20
2023-08-31T00:55:33.057Z,15.20
2023-08-31T00:58:01.138Z,15.10
2023-08-31T01:00:37.733Z,15.10
2023-08-31T01:03:15.007Z,15.10
2023-08-31T01:06:11.971Z,15.00
2023-08-31T01:08:48.907Z,14.90
2023-08-31T01:11:33.052Z,14.90
2023-08-31T01:14:06.373Z,14.90
2023-08-31T01:16:35.347Z,14.80
2023-08-31T01:19:07.006Z,14.80
2023-08-31T01:21:41.281Z,14.80
2023-08-31T01:24:09.590Z,14.70
2023-08-31T01:26:37.062Z,14.70
2023-08-31T01:29:04.340Z,14.70
2023-08-31T01:31:30.996Z,14.60
2023-08-31T01:33:57.640Z,14.60
2023-08-31T01:36:34.234Z,14.50
2023-08-31T01:39:08.725Z,14.40
2023-08-31T01:41:37.425Z,14.40
2023-08-31T01:44:05.612Z,14.30
2023-08-31T01:46:32.610Z,14.20
2023-08-31T01:48:59.340Z,14.20
2023-08-31T01:51:25.992Z,14.10
2023-08-31T01:53:52.824Z,14.10
2023-08-31T01:56:19.494Z,14.10
2023-08-31T01:58:46.168Z,14.10
2023-08-31T02:01:12.966Z,14.10
2023-08-31T02:03:39.889Z,14.10
2023-08-31T02:06:06.597Z,14.10
2023-08-31T02:08:33.825Z,14.20
2023-08-31T02:11:00.499Z,14.20
2023-08-31T02:13:27.146Z,14.20
2023-08-31T02:15:54.776Z,14.30
2023-08-31T02:18:21.756Z,14.30
2023-08-31T02:20:48.453Z,14.30
2023-08-31T02:23:15.191Z,14.30
2023-08-31T02:25:41.889Z,14.30
2023-08-31T02:28:08.593Z,14.30
2023-08-31T02:30:35.270Z,14.30
2023-08-31T02:33:02.076Z,14.30
2023-08-31T02:35:28.753Z,14.20
2023-08-31T02:37:55.426Z,14.20
2023-08-31T02:40:22.510Z,14.20
2023-08-31T02:42:53.513Z,14.20
2023-08-31T02:45:20.321Z,14.20
2023-08-31T02:47:47.165Z,14.20
2023-08-31T02:50:13.986Z,14.20
2023-08-31T02:52:41.582Z,14.20
2023-08-31T02:55:08.647Z,14.20
2023-08-31T02:57:35.401Z,14.30
2023-08-31T03:00:02.445Z,14.30
2023-08-31T03:02:29.737Z,14.40
2023-08-31T03:04:56.877Z,14.40
2023-08-31T03:07:23.534Z,14.40
2023-08-31T03:09:51.704Z,14.40
2023-08-31T03:12:18.523Z,14.40
2023-08-31T03:14:45.206Z,14.40
2023-08-31T03:17:11.861Z,14.40
2023-08-31T03:19:38.522Z,14.40
2023-08-31T03:22:05.258Z,14.40
2023-08-31T03:24:33.738Z,14.40
2023-08-31T03:27:00.387Z,14.50
2023-08-31T03:29:27.077Z,14.50
2023-08-31T03:31:53.746Z,14.40
2023-08-31T03:34:20.408Z,14.40
2023-08-31T03:36:47.164Z,14.40
2023-08-31T03:39:13.811Z,14.30
2023-08-31T03:41:40.493Z,14.20
2023-08-31T03:44:07.174Z,14.30
2023-08-31T03:46:33.945Z,14.30
2023-08-31T03:49:00.613Z,14.20
2023-08-31T03:51:27.261Z,14.20
2023-08-31T03:53:55.704Z,14.20
2023-08-31T03:56:22.392Z,14.10
2023-08-31T03:58:49.063Z,14.10
2023-08-31T04:01:15.864Z,14.10
2023-08-31T04:03:43.885Z,14.00
2023-08-31T04:06:10.640Z,14.00
2023-08-31T04:08:37.312Z,13.90
2023-08-31T04:11:04.242Z,13.80
2023-08-31T04:13:30.905Z,13.80
2023-08-31T04:15:57.647Z,13.70
2023-08-31T04:18:24.478Z,13.60
2023-08-31T04:20:53.163Z,13.50
2023-08-31T04:23:20.930Z,13.40
2023-08-31T04:25:48.443Z,13.40
2023-08-31T04:28:15.537Z,13.30
2023-08-31T04:30:42.291Z,13.30
2023-08-31T04:33:09.210Z,13.30
2023-08-31T04:35:36.040Z,13.30
2023-08-31T04:38:03.196Z,13.30
2023-08-31T04:40:32.028Z,13.30
2023-08-31T04:42:58.828Z,13.40
2023-08-31T04:45:25.641Z,13.30
2023-08-31T04:47:52.730Z,13.40
2023-08-31T04:50:19.494Z,13.40
2023-08-31T04:52:46.301Z,13.40
2023-08-31T04:55:14.269Z,13.40
2023-08-31T04:57:41.324Z,13.50
2023-08-31T05:00:10.223Z,13.40
2023-08-31T05:02:37.068Z,13.40
2023-08-31T05:05:04.545Z,13.40
2023-08-31T05:07:31.325Z,13.40
2023-08-31T05:09:58.020Z,13.40
2023-08-31T05:12:24.713Z,13.40
2023-08-31T05:14:51.465Z,13.30
2023-08-31T05:17:18.135Z,13.30
2023-08-31T05:19:44.882Z,13.20
2023-08-31T05:22:11.556Z,13.20
2023-08-31T05:24:38.298Z,13.10
2023-08-31T05:27:05.200Z,13.20
2023-08-31T05:29:31.868Z,13.20
2023-08-31T05:31:58.617Z,13.20
2023-08-31T05:34:26.185Z,13.20
2023-08-31T05:36:53.163Z,13.20
2023-08-31T05:39:19.835Z,13.20
2023-08-31T05:41:46.583Z,13.30
2023-08-31T05:44:13.288Z,13.30
2023-08-31T05:46:41.807Z,13.30
2023-08-31T05:49:09.030Z,13.40
2023-08-31T05:51:36.182Z,13.40
2023-08-31T05:54:04.153Z,13.40
2023-08-31T05:56:31.055Z,13.40
2023-08-31T05:58:57.845Z,13.40
2023-08-31T06:01:24.565Z,13.40
2023-08-31T06:03:51.349Z,13.50
2023-08-31T06:06:18.126Z,13.50
2023-08-31T06:08:45.075Z,13.60
2023-08-31T06:11:11.797Z,13.70
2023-08-31T06:13:39.220Z,13.70
2023-08-31T06:16:06.020Z,13.90
2023-08-31T06:18:32.820Z,14.00
2023-08-31T06:20:59.708Z,14.10
2023-08-31T06:23:26.387Z,14.30
2023-08-31T06:25:53.153Z,14.40
2023-08-31T06:28:19.868Z,14.40
2023-08-31T06:30:48.444Z,14.50
2023-08-31T06:33:16.514Z,14.70
2023-08-31T06:35:43.647Z,14.70
2023-08-31T06:38:10.332Z,14.80
2023-08-31T06:40:37.008Z,14.80
2023-08-31T06:43:04.654Z,14.80
2023-08-31T06:45:31.326Z,14.80
2023-08-31T06:47:58.008Z,14.80
2023-08-31T06:50:24.729Z,14.90
2023-08-31T06:52:51.408Z,14.90
2023-08-31T06:55:18.097Z,15.00
2023-08-31T06:57:45.053Z,15.10
2023-08-31T07:00:13.294Z,15.20
2023-08-31T07:02:42.087Z,15.60
2023-08-31T07:05:09.834Z,15.70
2023-08-31T07:07:36.557Z,15.80
2023-08-31T07:10:03.560Z,15.70
2023-08-31T07:12:30.230Z,15.80
2023-08-31T07:14:57.089Z,17.30
2023-08-31T07:17:23.790Z,18.90
2023-08-31T07:19:50.471Z,20.60
2023-08-31T07:22:17.162Z,21.90
2023-08-31T07:24:44.366Z,21.80
2023-08-31T07:27:11.089Z,21.40
2023-08-31T07:29:38.023Z,21.20
2023-08-31T07:32:04.793Z,20.90
2023-08-31T07:34:32.427Z,20.50
2023-08-31T07:37:00.663Z,20.10
2023-08-31T07:39:28.529Z,19.60
2023-08-31T07:41:55.756Z,19.30
2023-08-31T07:44:22.587Z,19.10
2023-08-31T07:46:49.356Z,18.90
2023-08-31T07:49:16.050Z,18.70
2023-08-31T07:51:42.705Z,18.30
2023-08-31T07:54:09.399Z,18.10
2023-08-31T07:56:36.098Z,18.00
2023-08-31T07:59:03.036Z,18.20
2023-08-31T08:01:29.895Z,18.60
2023-08-31T08:03:56.754Z,18.90
2023-08-31T08:06:23.568Z,19.00
2023-08-31T08:08:50.257Z,19.00
2023-08-31T08:11:16.946Z,19.20
2023-08-31T08:13:43.699Z,19.30
2023-08-31T08:16:10.590Z,19.30
2023-08-31T08:18:37.364Z,19.20
2023-08-31T08:21:04.536Z,19.50
2023-08-31T08:23:31.286Z,19.80
2023-08-31T08:26:00.321Z,19.90
2023-08-31T08:28:27.391Z,20.10
2023-08-31T08:30:54.139Z,20.10
2023-08-31T08:33:21.158Z,20.00
2023-08-31T08:35:48.012Z,19.80
2023-08-31T08:38:14.723Z,19.60
2023-08-31T08:40:41.443Z,19.40
2023-08-31T08:43:09.576Z,19.40
2023-08-31T08:45:42.504Z,19.30
2023-08-31T08:48:10.128Z,19.10
2023-08-31T08:50:38.157Z,19.00
2023-08-31T08:53:06.197Z,19.00
2023-08-31T08:55:34.007Z,19.20
2023-08-31T08:58:01.201Z,19.30
2023-08-31T09:00:31.131Z,19.50
2023-08-31T09:02:58.603Z,19.70
2023-08-31T09:05:26.079Z,19.90
2023-08-31T09:08:11.237Z,20.10
2023-08-31T09:10:42.760Z,20.20
2023-08-31T09:13:14.163Z,20.30
2023-08-31T09:15:48.823Z,20.40
2023-08-31T09:18:29.905Z,20.30
2023-08-31T09:21:00.061Z,20.20
2023-08-31T09:23:27.031Z,20.10
2023-08-31T09:25:55.384Z,20.10
2023-08-31T09:28:30.459Z,20.20
2023-08-31T09:31:08.211Z,20.20
2023-08-31T09:33:37.467Z,20.30
2023-08-31T09:36:05.207Z,20.40
2023-08-31T09:38:31.943Z,20.30
2023-08-31T09:41:06.804Z,20.40
2023-08-31T09:43:33.794Z,20.60
2023-08-31T09:46:03.054Z,20.60
2023-08-31T09:48:31.002Z,20.90
2023-08-31T09:50:58.713Z,21.10
2023-08-31T09:53:27.828Z,21.40
2023-08-31T09:55:58.111Z,21.60
2023-08-31T09:58:25.136Z,21.40
2023-08-31T10:00:53.149Z,21.30
2023-08-31T10:03:21.867Z,21.60
2023-08-31T10:05:50.741Z,22.10
2023-08-31T10:08:18.486Z,22.50
2023-08-31T10:10:45.950Z,22.70
2023-08-31T10:13:13.642Z,22.70
2023-08-31T10:15:44.049Z,23.10
2023-08-31T10:18:10.815Z,23.50
2023-08-31T10:20:37.560Z,23.70
2023-08-31T10:23:08.470Z,24.00
2023-08-31T10:25:47.467Z,24.00
2023-08-31T10:28:20.589Z,24.00
2023-08-31T10:31:04.928Z,24.10
2023-08-31T10:33:58.503Z,24.40
2023-08-31T10:36:39.985Z,24.60
2023-08-31T10:39:38.433Z,25.00
2023-08-31T10:42:05.282Z,24.80
2023-08-31T10:44:32.588Z,24.30
2023-08-31T10:47:04.995Z,24.30
2023-08-31T10:49:33.882Z,24.70
2023-08-31T10:52:28.427Z,25.00
2023-08-31T10:55:06.542Z,25.00
2023-08-31T10:57:36.278Z,24.80
2023-08-31T11:00:03.736Z,24.80
2023-08-31T11:02:35.256Z,24.60
2023-08-31T11:05:11.974Z,24.60
2023-08-31T11:07:50.644Z,24.70
2023-08-31T11:10:19.608Z,24.70
2023-08-31T11:12:48.739Z,24.70
2023-08-31T11:15:19.032Z,24.60
2023-08-31T11:17:47.387Z,24.50
2023-08-31T11:20:16.190Z,24.10
2023-08-31T11:22:44.257Z,23.90
2023-08-31T11:25:14.517Z,24.30
2023-08-31T11:27:41.434Z,24.60
2023-08-31T11:30:17.230Z,25.00
2023-08-31T11:32:51.911Z,25.50
2023-08-31T11:35:19.838Z,26.00
2023-08-31T11:37:50.961Z,26.20
2023-08-31T11:40:17.809Z,25.90
2023-08-31T11:42:45.211Z,25.60
2023-08-31T11:45:14.750Z,25.30
2023-08-31T11:47:43.013Z,24.90
2023-08-31T11:50:10.376Z,24.80
2023-08-31T11:52:37.278Z,24.90
2023-08-31T11:55:04.475Z,25.30
2023-08-31T11:57:31.169Z,25.60
2023-08-31T11:59:57.978Z,26.00
2023-08-31T12:02:24.671Z,26.40
2023-08-31T12:04:51.530Z,26.50
2023-08-31T12:07:20.135Z,26.60
2023-08-31T12:09:47.159Z,26.70
2023-08-31T12:12:21.333Z,26.80
2023-08-31T12:14:48.102Z,27.00
2023-08-31T12:17:19.618Z,27.10
2023-08-31T12:19:46.289Z,26.90
2023-08-31T12:22:15.757Z,26.90
2023-08-31T12:24:43.116Z,27.20
2023-08-31T12:27:10.386Z,27.30
2023-08-31T12:29:37.189Z,26.90
2023-08-31T12:32:04.323Z,26.50
2023-08-31T12:34:34.084Z,26.10
2023-08-31T12:37:01.770Z,25.60
2023-08-31T12:39:28.674Z,25.20
2023-08-31T12:42:00.584Z,24.80
2023-08-31T12:44:32.601Z,24.50
2023-08-31T12:46:59.274Z,24.20
2023-08-31T12:49:26.053Z,24.00
2023-08-31T12:51:52.990Z,23.80
2023-08-31T12:54:20.729Z,23.60
2023-08-31T12:56:47.524Z,23.40
2023-08-31T12:59:14.313Z,23.40
2023-08-31T13:01:41.151Z,23.50
2023-08-31T13:04:07.815Z,23.80
2023-08-31T13:06:34.466Z,24.10
2023-08-31T13:09:01.148Z,24.40
2023-08-31T13:11:27.923Z,24.50
2023-08-31T13:13:54.680Z,24.60
2023-08-31T13:16:25.497Z,24.70
2023-08-31T13:18:52.532Z,24.90
2023-08-31T13:21:19.271Z,25.10
2023-08-31T13:23:46.039Z,25.30
2023-08-31T13:26:13.422Z,25.40
2023-08-31T13:28:40.438Z,25.40
2023-08-31T13:31:07.244Z,25.40
2023-08-31T13:33:33.947Z,25.70
2023-08-31T13:36:01.423Z,25.60
2023-08-31T13:38:28.456Z,25.50
2023-08-31T13:40:58.648Z,25.40
2023-08-31T13:43:25.870Z,25.30
2023-08-31T13:45:52.972Z,25.00
2023-08-31T13:48:20.278Z,24.80
2023-08-31T13:50:47.880Z,24.60
2023-08-31T13:53:14.761Z,24.30
2023-08-31T13:55:41.691Z,24.10
2023-08-31T13:58:09.259Z,24.10
2023-08-31T14:00:37.075Z,24.20
2023-08-31T14:03:06.356Z,24.30
2023-08-31T14:05:33.522Z,24.40
2023-08-31T14:08:02.661Z,24.50
2023-08-31T14:10:29.461Z,24.60
2023-08-31T14:12:56.139Z,24.70
2023-08-31T14:15:22.855Z,24.80
2023-08-31T14:17:54.111Z,24.80
2023-08-31T14:20:20.916Z,24.60
2023-08-31T14:22:47.573Z,24.40
2023-08-31T14:25:15.234Z,24.20
2023-08-31T14:27:42.443Z,24.30
2023-08-31T14:30:09.834Z,24.40
2023-08-31T14:32:36.583Z,24.30
2023-08-31T14:35:05.192Z,24.30
2023-08-31T14:37:31.924Z,24.20
2023-08-31T14:39:59.016Z,24.20
2023-08-31T14:42:25.692Z,24.40
2023-08-31T14:44:52.441Z,24.60
2023-08-31T14:47:19.118Z,24.70
2023-08-31T14:49:45.856Z,24.60
2023-08-31T14:52:12.615Z,24.40
2023-08-31T14:54:39.276Z,24.30
2023-08-31T14:57:06.400Z,24.10
2023-08-31T14:59:33.101Z,24.10
2023-08-31T15:02:02.687Z,24.00
2023-08-31T15:04:29.907Z,23.80
2023-08-31T15:06:57.363Z,23.60
2023-08-31T15:09:24.433Z,23.40
2023-08-31T15:11:51.527Z,23.30
2023-08-31T15:14:18.376Z,23.20
2023-08-31T15:16:45.177Z,23.20
2023-08-31T15:19:11.847Z,23.30
2023-08-31T15:21:39.330Z,23.10
2023-08-31T15:24:06.293Z,23.20
2023-08-31T15:26:33.844Z,23.20
2023-08-31T15:29:00.548Z,23.20
2023-08-31T15:31:27.804Z,23.20
2023-08-31T15:33:54.632Z,23.00
2023-08-31T15:36:21.320Z,23.00
2023-08-31T15:38:48.027Z,22.90
2023-08-31T15:41:16.030Z,22.70
2023-08-31T15:43:43.684Z,22.70
2023-08-31T15:46:10.996Z,22.60
2023-08-31T15:48:38.300Z,22.60
2023-08-31T15:51:05.404Z,22.50
2023-08-31T15:53:32.536Z,22.50
2023-08-31T15:55:59.474Z,22.50
2023-08-31T15:58:27.944Z,22.40
2023-08-31T16:01:02.581Z,22.40
2023-08-31T16:03:34.290Z,22.40
2023-08-31T16:06:01.521Z,22.30
2023-08-31T16:08:29.158Z,22.40
2023-08-31T16:10:56.227Z,22.30
2023-08-31T16:13:23.044Z,22.20
2023-08-31T16:15:50.642Z,22.20
2023-08-31T16:18:18.103Z,22.10
2023-08-31T16:20:45.621Z,22.10
2023-08-31T16:23:12.850Z,22.10
2023-08-31T16:25:39.633Z,22.00
2023-08-31T16:28:06.993Z,22.00
2023-08-31T16:30:33.866Z,21.90
2023-08-31T16:33:00.760Z,21.80
2023-08-31T16:35:27.508Z,21.80
2023-08-31T16:37:54.220Z,21.70
2023-08-31T16:40:21.671Z,21.70
2023-08-31T16:42:48.391Z,21.70
2023-08-31T16:45:15.091Z,21.70
2023-08-31T16:47:42.655Z,21.70
2023-08-31T16:50:10.821Z,21.70
2023-08-31T16:52:37.596Z,21.70
2023-08-31T16:55:05.164Z,21.70
2023-08-31T16:57:31.904Z,21.70
2023-08-31T16:59:58.657Z,21.70
2023-08-31T17:02:25.421Z,21.70
2023-08-31T17:04:53.822Z,21.60
2023-08-31T17:07:21.031Z,21.60
2023-08-31T17:09:47.924Z,21.50
2023-08-31T17:12:16.383Z,21.50
2023-08-31T17:14:46.217Z,21.40
2023-08-31T17:17:13.102Z,21.40
2023-08-31T17:19:39.853Z,21.30
2023-08-31T17:22:06.778Z,21.20
2023-08-31T17:24:33.579Z,21.20
2023-08-31T17:27:00.505Z,20.90
2023-08-31T17:29:27.273Z,20.80
2023-08-31T17:31:53.926Z,20.70
2023-08-31T17:34:21.009Z,20.60
2023-08-31T17:36:47.766Z,20.50
2023-08-31T17:39:15.043Z,20.40
2023-08-31T17:41:41.795Z,20.50
2023-08-31T17:44:08.421Z,20.30
2023-08-31T17:46:35.161Z,20.20
2023-08-31T17:49:02.833Z,20.20
2023-08-31T17:51:29.570Z,20.10
2023-08-31T17:53:59.884Z,20.10
2023-08-31T17:56:28.087Z,19.90
2023-08-31T17:58:55.424Z,19.90
2023-08-31T18:01:22.352Z,19.80
2023-08-31T18:03:49.250Z,19.70
2023-08-31T18:06:16.074Z,19.70
2023-08-31T18:08:46.668Z,19.60
2023-08-31T18:11:14.679Z,19.60
2023-08-31T18:13:41.538Z,19.60
2023-08-31T18:16:08.333Z,19.50
2023-08-31T18:18:35.485Z,19.50
2023-08-31T18:21:02.177Z,19.50
2023-08-31T18:23:28.898Z,19.50
2023-08-31T18:25:56.517Z,19.50
2023-08-31T18:28:23.775Z,19.40
2023-08-31T18:30:57.660Z,19.30
2023-08-31T18:33:25.264Z,19.30
2023-08-31T18:35:52.923Z,19.20
2023-08-31T18:38:20.995Z,19.20
2023-08-31T18:40:50.661Z,19.20
2023-08-31T18:43:18.472Z,19.10
2023-08-31T18:45:46.475Z,19.00
2023-08-31T18:48:14.838Z,19.00
2023-08-31T18:50:42.679Z,18.90
2023-08-31T18:53:09.741Z,18.80
2023-08-31T18:55:37.210Z,18.90
2023-08-31T18:58:05.136Z,18.90
2023-08-31T19:00:32.453Z,18.90
2023-08-31T19:02:59.418Z,18.90
2023-08-31T19:05:28.092Z,18.80
2023-08-31T19:07:55.190Z,18.80
2023-08-31T19:10:22.880Z,18.80
2023-08-31T19:12:50.238Z,18.70
2023-08-31T19:15:18.330Z,18.60
2023-08-31T19:17:48.847Z,18.50
2023-08-31T19:20:16.199Z,18.50
2023-08-31T19:22:46.584Z,18.40
2023-08-31T19:25:13.728Z,18.40
2023-08-31T19:27:40.921Z,18.40
2023-08-31T19:30:09.268Z,18.40
2023-08-31T19:32:36.664Z,18.30
2023-08-31T19:35:19.214Z,18.30
2023-08-31T19:37:52.437Z,18.20
2023-08-31T19:40:20.880Z,18.10
2023-08-31T19:42:48.650Z,18.00
2023-08-31T19:45:18.791Z,18.00
2023-08-31T19:47:48.270Z,18.00
2023-08-31T19:50:15.967Z,18.00
2023-08-31T19:52:42.699Z,17.90
2023-08-31T19:55:12.558Z,17.90
2023-08-31T19:57:39.960Z,17.90
2023-08-31T20:00:08.655Z,17.90
2023-08-31T20:02:36.165Z,17.90
2023-08-31T20:05:04.774Z,17.80
2023-08-31T20:07:31.487Z,17.70
2023-08-31T20:09:58.250Z,17.60
2023-08-31T20:12:24.963Z,17.80
2023-08-31T20:14:51.710Z,17.50
2023-08-31T20:17:18.342Z,17.40
2023-08-31T20:19:45.181Z,17.30
2023-08-31T20:22:12.157Z,17.30
2023-08-31T20:24:38.852Z,17.30
2023-08-31T20:27:06.688Z,17.20
2023-08-31T20:29:34.149Z,17.20
2023-08-31T20:32:01.518Z,17.20
2023-08-31T20:34:28.350Z,17.20
2023-08-31T20:36:56.758Z,17.20
2023-08-31T20:39:23.918Z,17.00
2023-08-31T20:41:50.849Z,17.00
2023-08-31T20:44:17.557Z,16.90
2023-08-31T20:46:45.739Z,17.00
2023-08-31T20:49:13.162Z,17.00
2023-08-31T20:51:42.007Z,17.00
2023-08-31T20:54:08.767Z,17.00
2023-08-31T20:56:36.034Z,16.90
2023-08-31T20:59:04.281Z,16.80
2023-08-31T21:01:30.947Z,16.80
2023-08-31T21:04:01.887Z,16.80
2023-08-31T21:06:29.193Z,16.80
2023-08-31T21:08:56.430Z,16.80
2023-08-31T21:11:24.445Z,16.80
2023-08-31T21:13:52.701Z,16.70
2023-08-31T21:16:23.277Z,16.80
2023-08-31T21:18:51.482Z,16.80
2023-08-31T21:21:18.216Z,16.70
2023-08-31T21:23:44.961Z,16.70
2023-08-31T21:26:11.653Z,16.60
2023-08-31T21:28:38.349Z,16.60
2023-08-31T21:31:05.247Z,16.60
2023-08-31T21:33:32.607Z,16.60
2023-08-31T21:36:01.930Z,16.70
2023-08-31T21:38:28.778Z,16.50
2023-08-31T21:40:55.493Z,16.50
2023-08-31T21:43:22.288Z,16.50
2023-08-31T21:45:49.014Z,16.50
2023-08-31T21:48:16.033Z,16.50
2023-08-31T21:50:42.992Z,16.50
2023-08-31T21:53:09.684Z,16.50
2023-08-31T21:55:37.107Z,16.50
2023-08-31T21:58:04.598Z,16.50
2023-08-31T22:00:31.731Z,16.50
2023-08-31T22:02:58.556Z,16.60
2023-08-31T22:05:27.196Z,16.50
2023-08-31T22:07:56.552Z,16.50
2023-08-31T22:10:24.606Z,16.40
2023-08-31T22:12:53.210Z,16.30
2023-08-31T22:15:22.685Z,16.30
2023-08-31T22:17:51.448Z,16.20
2023-08-31T22:20:20.818Z,16.30
2023-08-31T22:22:50.393Z,16.20
2023-08-31T22:25:17.305Z,16.20
2023-08-31T22:27:44.102Z,16.30
2023-08-31T22:30:11.633Z,16.30
2023-08-31T22:32:40.215Z,16.20
2023-08-31T22:35:07.658Z,16.30
2023-08-31T22:37:35.180Z,16.20
2023-08-31T22:40:02.428Z,16.20
2023-08-31T22:42:29.112Z,16.10
2023-08-31T22:44:55.800Z,16.00
2023-08-31T22:47:22.477Z,16.00
2023-08-31T22:49:53.264Z,16.00
2023-08-31T22:52:20.066Z,16.00
2023-08-31T22:54:46.835Z,15.90
2023-08-31T22:57:13.494Z,15.90
2023-08-31T22:59:40.223Z,15.90
2023-08-31T23:02:07.116Z,15.90
2023-08-31T23:04:33.896Z,15.80
2023-08-31T23:07:00.710Z,15.80
2023-08-31T23:09:27.683Z,15.70
2023-08-31T23:11:54.715Z,15.70
2023-08-31T23:14:21.658Z,15.70
2023-08-31T23:16:48.425Z,15.70
2023-08-31T23:19:15.115Z,15.70
2023-08-31T23:21:43.693Z,15.60
2023-08-31T23:24:10.779Z,15.60
2023-08-31T23:26:37.601Z,15.70
2023-08-31T23:29:06.656Z,15.60
2023-08-31T23:31:36.460Z,15.70
2023-08-31T23:34:03.253Z,15.70
2023-08-31T23:36:29.917Z,15.80
2023-08-31T23:38:56.692Z,15.80
2023-08-31T23:41:23.590Z,15.80
2023-08-31T23:43:50.431Z,15.80
2023-08-31T23:46:17.315Z,15.80
2023-08-31T23:48:44.153Z,15.80
2023-08-31T23:51:10.895Z,15.90
2023-08-31T23:53:39.442Z,16.00
2023-08-31T23:56:06.741Z,16.10
2023-08-31T23:58:34.084Z,16.00
